createdAt,value
2018-06-12T06:38:03.440Z,41.68
2018-06-12T06:40:32.812Z,40.40
2018-06-12T06:43:02.292Z,40.48
2018-06-12T06:45:31.304Z,40.66
2018-06-12T06:48:00.561Z,41.17
2018-06-12T06:50:29.870Z,41.25
2018-06-12T06:52:59.246Z,41.68
2018-06-12T06:55:28.511Z,41.28
2018-06-12T06:57:57.812Z,40.90
2018-06-12T07:00:27.238Z,40.48
2018-06-12T07:02:56.583Z,39.59
2018-06-12T07:05:25.613Z,39.38
2018-06-12T07:07:54.762Z,40.45
2018-06-12T07:10:23.884Z,39.01
2018-06-12T07:12:53.024Z,39.20
2018-06-12T07:15:22.242Z,39.62
2018-06-12T07:17:51.375Z,37.55
2018-06-12T07:20:31.444Z,38.80
2018-06-12T07:23:00.804Z,37.30
2018-06-12T07:25:30.119Z,37.04
2018-06-12T07:27:59.121Z,37.56
2018-06-12T07:30:28.455Z,38.33
2018-06-12T07:32:57.772Z,37.64
2018-06-12T07:35:27.132Z,36.88
2018-06-12T07:37:56.422Z,36.97
2018-06-12T07:40:25.687Z,37.03
2018-06-12T07:42:54.912Z,36.95
2018-06-12T07:45:24.012Z,37.49
2018-06-12T07:47:53.259Z,37.92
2018-06-12T07:50:22.484Z,36.21
2018-06-12T07:52:51.860Z,36.21
2018-06-12T07:55:21.197Z,37.14
2018-06-12T07:57:50.701Z,35.66
2018-06-12T08:00:19.676Z,36.73
2018-06-12T08:02:48.737Z,35.15
2018-06-12T08:05:18.145Z,35.41
2018-06-12T08:07:47.347Z,35.30
2018-06-12T08:10:16.641Z,36.11
2018-06-12T08:12:46.045Z,35.20
2018-06-12T08:15:15.368Z,34.87
2018-06-12T08:17:44.758Z,35.81
2018-06-12T08:20:14.144Z,35.44
2018-06-12T08:22:43.525Z,35.14
2018-06-12T08:25:12.921Z,35.06
2018-06-12T08:27:42.224Z,37.85
2018-06-12T08:30:11.573Z,34.50
2018-06-12T08:32:40.868Z,34.32
2018-06-12T08:35:10.409Z,33.38
2018-06-12T08:37:39.686Z,33.41
2018-06-12T08:40:08.943Z,34.65
2018-06-12T08:42:38.296Z,33.60
2018-06-12T08:45:07.495Z,32.50
2018-06-12T08:47:36.929Z,31.71
2018-06-12T08:50:06.117Z,31.97
2018-06-12T08:52:35.153Z,32.63
2018-06-12T08:55:04.484Z,32.50
2018-06-12T08:57:33.809Z,32.16
2018-06-12T09:00:03.221Z,32.05
2018-06-12T09:02:32.633Z,32.01
2018-06-12T09:05:01.901Z,31.95
2018-06-12T09:07:31.081Z,32.80
2018-06-12T09:10:00.333Z,31.69
2018-06-12T09:12:29.625Z,32.47
2018-06-12T09:14:59.050Z,33.96
2018-06-12T09:17:28.309Z,31.64
2018-06-12T09:19:57.601Z,31.96
2018-06-12T09:22:26.917Z,33.18
2018-06-12T09:24:56.288Z,32.02
2018-06-12T09:27:25.488Z,31.04
2018-06-12T09:29:54.720Z,31.63
2018-06-12T09:32:23.708Z,30.87
2018-06-12T09:34:53.059Z,32.35
2018-06-12T09:37:22.293Z,30.99
2018-06-12T09:39:51.508Z,31.17
2018-06-12T09:42:20.832Z,31.28
2018-06-12T09:44:49.870Z,32.78
2018-06-12T09:47:18.876Z,31.38
2018-06-12T09:49:47.956Z,32.26
2018-06-12T09:52:16.927Z,32.46
2018-06-12T09:54:46.037Z,32.90
2018-06-12T09:57:15.287Z,32.94
2018-06-12T09:59:44.569Z,32.62
2018-06-12T10:02:15.461Z,33.88
2018-06-12T10:04:44.752Z,32.83
2018-06-12T10:07:14.033Z,32.96
2018-06-12T10:09:43.303Z,31.93
2018-06-12T10:12:12.676Z,33.39
2018-06-12T10:14:41.865Z,35.56
2018-06-12T10:17:11.170Z,32.21
2018-06-12T10:19:40.613Z,30.77
2018-06-12T10:22:09.973Z,31.22
2018-06-12T10:24:39.304Z,31.56
2018-06-12T10:27:08.577Z,30.69
2018-06-12T10:29:37.892Z,30.09
2018-06-12T10:32:07.272Z,30.45
2018-06-12T10:34:36.637Z,31.34
2018-06-12T10:37:06.293Z,30.24
2018-06-12T10:39:35.500Z,29.62
2018-06-12T10:42:04.719Z,30.61
2018-06-12T10:44:34.069Z,29.18
2018-06-12T10:47:03.374Z,31.34
2018-06-12T10:49:32.585Z,30.19
2018-06-12T10:52:01.913Z,31.29
2018-06-12T10:54:31.398Z,31.06
2018-06-12T10:57:00.813Z,31.01
2018-06-12T10:59:30.141Z,30.83
2018-06-12T11:01:59.512Z,30.87
2018-06-12T11:04:28.989Z,29.94
2018-06-12T11:06:58.252Z,29.94
2018-06-12T11:09:27.533Z,29.84
2018-06-12T11:11:56.861Z,29.41
2018-06-12T11:14:26.234Z,30.07
2018-06-12T11:16:55.336Z,30.02
2018-06-12T11:19:24.676Z,30.28
2018-06-12T11:21:54.064Z,29.91
2018-06-12T11:24:23.481Z,29.53
2018-06-12T11:26:52.900Z,29.41
2018-06-12T11:29:22.192Z,28.73
2018-06-12T11:31:51.448Z,30.09
2018-06-12T11:34:20.845Z,29.19
2018-06-12T11:36:50.106Z,29.41
2018-06-12T11:39:19.371Z,29.80
2018-06-12T11:41:48.692Z,29.96
2018-06-12T11:44:18.023Z,31.42
2018-06-12T11:46:47.300Z,30.39
2018-06-12T11:49:16.763Z,29.95
2018-06-12T11:51:46.141Z,30.40
2018-06-12T11:54:15.336Z,31.20
2018-06-12T11:56:44.611Z,31.54
2018-06-12T11:59:13.849Z,30.91
2018-06-12T12:01:43.002Z,31.67
2018-06-12T12:04:12.300Z,30.72
2018-06-12T12:06:41.532Z,30.95
2018-06-12T12:09:10.813Z,30.64
2018-06-12T12:11:40.043Z,30.94
2018-06-12T12:14:09.295Z,30.17
2018-06-12T12:16:39.224Z,29.85
2018-06-12T12:19:08.332Z,30.18
2018-06-12T12:21:37.332Z,29.80
2018-06-12T12:24:06.778Z,28.63
2018-06-12T12:26:35.976Z,28.90
2018-06-12T12:29:05.364Z,29.30
2018-06-12T12:31:34.727Z,29.47
2018-06-12T12:34:04.393Z,29.54
2018-06-12T12:36:33.736Z,29.73
2018-06-12T12:39:03.161Z,29.76
2018-06-12T12:41:32.465Z,30.98
2018-06-12T12:44:01.652Z,30.79
2018-06-12T12:46:30.968Z,30.59
2018-06-12T12:49:00.128Z,31.17
2018-06-12T12:51:29.205Z,30.53
2018-06-12T12:53:58.494Z,30.75
2018-06-12T12:56:27.916Z,32.40
2018-06-12T12:58:57.279Z,31.96
2018-06-12T13:01:26.673Z,31.47
2018-06-12T13:03:56.036Z,31.00
2018-06-12T13:06:25.364Z,31.07
2018-06-12T13:08:54.684Z,32.27
2018-06-12T13:11:24.073Z,30.64
2018-06-12T13:13:53.543Z,30.71
2018-06-12T13:16:22.752Z,29.86
2018-06-12T13:18:51.980Z,30.67
2018-06-12T13:21:21.211Z,29.77
2018-06-12T13:23:50.480Z,29.79
2018-06-12T13:26:19.908Z,30.19
2018-06-12T13:28:49.169Z,29.30
2018-06-12T13:31:18.553Z,30.83
2018-06-12T13:33:47.947Z,29.54
2018-06-12T13:36:17.297Z,30.42
2018-06-12T13:38:46.696Z,30.14
2018-06-12T13:41:16.058Z,30.84
2018-06-12T13:43:45.417Z,31.98
2018-06-12T13:46:14.744Z,31.73
2018-06-12T13:48:44.009Z,32.00
2018-06-12T13:51:13.312Z,33.74
2018-06-12T13:53:42.428Z,33.60
2018-06-12T13:56:11.560Z,34.36
2018-06-12T13:58:40.933Z,33.17
2018-06-12T14:01:10.341Z,33.40
2018-06-12T14:03:39.756Z,34.06
2018-06-12T14:06:09.040Z,33.67
2018-06-12T14:08:38.255Z,33.83
2018-06-12T14:11:07.549Z,34.66
2018-06-12T14:13:36.803Z,34.31
2018-06-12T14:16:06.097Z,33.59
2018-06-12T14:18:35.454Z,33.43
2018-06-12T14:21:04.663Z,33.65
2018-06-12T14:23:33.908Z,33.45
2018-06-12T14:26:03.037Z,33.81
2018-06-12T14:28:32.274Z,33.87
2018-06-12T14:31:01.216Z,33.61
2018-06-12T14:33:30.439Z,33.94
2018-06-12T14:35:59.624Z,32.61
2018-06-12T14:38:28.906Z,32.33
2018-06-12T14:40:58.376Z,32.59
2018-06-12T14:43:27.404Z,33.55
2018-06-12T14:45:56.669Z,33.18
2018-06-12T14:48:26.103Z,33.75
2018-06-12T14:50:55.352Z,33.51
2018-06-12T14:53:24.628Z,33.22
2018-06-12T14:55:54.065Z,33.85
2018-06-12T14:58:23.341Z,33.72
2018-06-12T15:00:52.660Z,33.40
2018-06-12T15:03:21.955Z,33.10
2018-06-12T15:05:51.325Z,34.06
2018-06-12T15:08:20.589Z,33.87
2018-06-12T15:10:50.005Z,33.25
2018-06-12T15:13:19.375Z,32.75
2018-06-12T15:15:48.688Z,33.82
2018-06-12T15:18:17.836Z,33.37
2018-06-12T15:20:47.195Z,32.83
2018-06-12T15:23:16.311Z,33.30
2018-06-12T15:25:45.424Z,33.60
2018-06-12T15:28:14.553Z,33.24
2018-06-12T15:30:43.697Z,34.13
2018-06-12T15:33:12.965Z,33.99
2018-06-12T15:35:42.077Z,33.99
2018-06-12T15:38:11.315Z,33.50
2018-06-12T15:40:40.619Z,33.35
2018-06-12T15:43:09.912Z,34.02
2018-06-12T15:45:39.232Z,33.63
2018-06-12T15:48:09.314Z,33.54
2018-06-12T15:50:38.568Z,33.68
2018-06-12T15:53:07.784Z,33.11
2018-06-12T15:55:37.093Z,33.58
2018-06-12T15:58:06.395Z,33.75
2018-06-12T16:00:35.789Z,34.23
2018-06-12T16:03:04.997Z,34.35
2018-06-12T16:05:34.332Z,34.94
2018-06-12T16:08:03.651Z,35.18
2018-06-12T16:10:32.619Z,34.58
2018-06-12T16:13:01.941Z,35.06
2018-06-12T16:15:31.295Z,35.28
2018-06-12T16:18:00.592Z,34.70
2018-06-12T16:20:29.873Z,35.30
2018-06-12T16:22:59.236Z,35.63
2018-06-12T16:25:28.525Z,35.52
2018-06-12T16:27:57.569Z,36.67
2018-06-12T16:30:26.920Z,36.50
2018-06-12T16:32:55.927Z,37.18
2018-06-12T16:35:25.159Z,37.50
2018-06-12T16:37:54.400Z,38.02
2018-06-12T16:40:23.515Z,37.82
2018-06-12T16:42:52.735Z,37.93
2018-06-12T16:45:22.008Z,38.64
2018-06-12T16:47:51.346Z,39.53
2018-06-12T16:50:21.270Z,39.23
2018-06-12T16:52:50.635Z,39.28
2018-06-12T16:55:19.997Z,40.02
2018-06-12T16:57:49.436Z,40.97
2018-06-12T17:00:18.804Z,41.62
2018-06-12T17:02:47.955Z,41.90
2018-06-12T17:05:17.154Z,41.19
2018-06-12T17:07:46.373Z,41.51
2018-06-12T17:10:15.662Z,41.93
2018-06-12T17:12:44.922Z,42.57
2018-06-12T17:15:14.205Z,42.42
2018-06-12T17:17:43.479Z,42.33
2018-06-12T17:20:12.692Z,42.54
2018-06-12T17:22:42.073Z,42.75
2018-06-12T17:25:11.335Z,43.21
2018-06-12T17:27:40.561Z,44.21
2018-06-12T17:30:09.949Z,44.33
2018-06-12T17:32:39.299Z,43.85
2018-06-12T17:35:08.746Z,44.91
2018-06-12T17:37:38.105Z,44.97
2018-06-12T17:40:07.541Z,44.75
2018-06-12T17:42:36.972Z,45.61
2018-06-12T17:45:06.332Z,46.19
2018-06-12T17:47:35.673Z,46.08
2018-06-12T17:50:05.050Z,47.25
2018-06-12T17:52:34.464Z,47.23
2018-06-12T17:55:03.754Z,48.16
2018-06-12T17:57:33.101Z,48.01
2018-06-12T18:00:02.442Z,47.92
2018-06-12T18:02:31.624Z,48.76
2018-06-12T18:05:00.916Z,48.95
2018-06-12T18:07:30.212Z,49.06
2018-06-12T18:09:59.491Z,49.65
2018-06-12T18:12:28.966Z,49.67
2018-06-12T18:14:58.324Z,50.42
2018-06-12T18:17:27.557Z,50.02
2018-06-12T18:20:03.384Z,49.90
2018-06-12T18:22:32.869Z,49.77
2018-06-12T18:25:02.101Z,50.33
2018-06-12T18:27:31.256Z,49.98
2018-06-12T18:30:00.519Z,50.74
2018-06-12T18:32:29.831Z,50.18
2018-06-12T18:34:59.205Z,48.99
2018-06-12T18:37:28.617Z,50.07
2018-06-12T18:39:57.988Z,49.33
2018-06-12T18:42:27.317Z,49.17
2018-06-12T18:44:56.612Z,49.53
2018-06-12T18:47:25.864Z,49.89
2018-06-12T18:49:55.252Z,50.07
2018-06-12T18:52:24.607Z,50.40
2018-06-12T18:54:53.788Z,49.73
2018-06-12T18:57:23.125Z,49.72
2018-06-12T18:59:52.312Z,50.30
2018-06-12T19:02:21.567Z,49.82
2018-06-12T19:04:50.760Z,49.61
2018-06-12T19:07:19.841Z,50.27
2018-06-12T19:09:49.025Z,49.92
2018-06-12T19:12:18.269Z,49.24
2018-06-12T19:14:47.590Z,48.49
2018-06-12T19:17:16.857Z,47.83
2018-06-12T19:19:46.076Z,48.28
2018-06-12T19:22:15.375Z,48.37
2018-06-12T19:24:44.680Z,49.43
2018-06-12T19:27:14.002Z,48.40
2018-06-12T19:29:43.332Z,49.39
2018-06-12T19:32:12.524Z,48.90
2018-06-12T19:34:41.709Z,48.94
2018-06-12T19:37:10.981Z,49.92
2018-06-12T19:39:40.275Z,50.05
2018-06-12T19:42:09.467Z,49.87
2018-06-12T19:44:38.719Z,50.31
2018-06-12T19:47:07.938Z,50.13
2018-06-12T19:49:37.172Z,50.76
2018-06-12T19:52:06.482Z,50.11
2018-06-12T19:54:35.768Z,50.72
2018-06-12T19:57:05.036Z,50.56
2018-06-12T19:59:34.256Z,51.02
2018-06-12T20:02:03.741Z,51.44
2018-06-12T20:04:32.999Z,50.06
2018-06-12T20:07:02.281Z,50.90
2018-06-12T20:09:32.233Z,51.37
2018-06-12T20:12:01.528Z,51.04
2018-06-12T20:14:30.897Z,50.10
2018-06-12T20:17:00.124Z,52.52
2018-06-12T20:19:29.534Z,51.69
2018-06-12T20:21:58.928Z,52.06
2018-06-12T20:24:28.355Z,52.97
2018-06-12T20:26:57.539Z,55.97
2018-06-12T20:29:26.809Z,56.71
2018-06-12T20:31:56.003Z,55.15
2018-06-12T20:34:25.257Z,55.41
2018-06-12T20:36:54.648Z,55.28
2018-06-12T20:39:23.769Z,53.40
2018-06-12T20:41:52.890Z,52.56
2018-06-12T20:44:22.025Z,53.24
2018-06-12T20:46:51.063Z,52.58
2018-06-12T20:49:20.340Z,52.04
2018-06-12T20:51:49.552Z,51.10
2018-06-12T20:54:18.847Z,52.00
2018-06-12T20:56:48.206Z,50.62
2018-06-12T20:59:17.415Z,50.27
2018-06-12T21:01:46.860Z,50.98
2018-06-12T21:04:16.163Z,50.36
2018-06-12T21:06:45.612Z,50.86
2018-06-12T21:09:14.991Z,50.90
2018-06-12T21:11:44.309Z,50.49
2018-06-12T21:14:13.718Z,50.06
2018-06-12T21:16:42.994Z,50.49
2018-06-12T21:19:11.965Z,50.45
2018-06-12T21:21:41.168Z,50.80
2018-06-12T21:24:10.348Z,51.52
2018-06-12T21:26:39.584Z,51.83
2018-06-12T21:29:08.900Z,50.19
2018-06-12T21:31:38.337Z,48.95
2018-06-12T21:34:07.626Z,49.50
2018-06-12T21:36:37.037Z,49.04
2018-06-12T21:39:08.124Z,49.66
2018-06-12T21:41:37.985Z,48.69
2018-06-12T21:44:07.369Z,49.11
2018-06-12T21:46:36.532Z,49.72
2018-06-12T21:49:06.151Z,49.61
2018-06-12T21:51:36.528Z,49.87
2018-06-12T21:54:05.767Z,50.50
2018-06-12T21:56:34.998Z,50.94
2018-06-12T21:59:04.283Z,52.12
2018-06-12T22:01:33.592Z,51.79
2018-06-12T22:04:02.937Z,49.79
2018-06-12T22:06:32.188Z,51.04
2018-06-12T22:09:01.422Z,51.93
2018-06-12T22:11:30.632Z,51.76
2018-06-12T22:13:59.843Z,51.54
2018-06-12T22:16:29.221Z,53.22
2018-06-12T22:18:58.510Z,52.32
2018-06-12T22:21:27.825Z,51.36
2018-06-12T22:23:57.253Z,50.83
2018-06-12T22:26:26.391Z,50.43
2018-06-12T22:28:55.560Z,50.41
2018-06-12T22:31:24.818Z,50.55
2018-06-12T22:33:54.039Z,50.62
2018-06-12T22:36:23.283Z,50.46
2018-06-12T22:38:52.584Z,49.18
2018-06-12T22:41:21.865Z,49.29
2018-06-12T22:43:51.135Z,49.91
2018-06-12T22:46:20.368Z,49.11
2018-06-12T22:48:49.696Z,50.38
2018-06-12T22:51:19.032Z,50.52
2018-06-12T22:53:48.291Z,49.78
2018-06-12T22:56:17.421Z,49.96
2018-06-12T22:58:46.776Z,51.32
2018-06-12T23:01:16.116Z,51.59
2018-06-12T23:03:45.472Z,51.63
2018-06-12T23:06:14.811Z,51.96
2018-06-12T23:08:44.136Z,51.16
2018-06-12T23:11:13.469Z,51.61
2018-06-12T23:13:42.732Z,51.69
2018-06-12T23:16:12.017Z,52.47
2018-06-12T23:18:41.415Z,52.09
2018-06-12T23:21:21.309Z,51.29
2018-06-12T23:23:50.616Z,51.34
2018-06-12T23:26:20.083Z,50.52
2018-06-12T23:28:49.400Z,50.32
2018-06-12T23:31:18.737Z,50.85
2018-06-12T23:33:48.044Z,50.61
2018-06-12T23:36:17.428Z,50.33
2018-06-12T23:38:46.765Z,50.09
2018-06-12T23:41:16.025Z,49.66
2018-06-12T23:43:45.325Z,50.65
2018-06-12T23:46:14.637Z,50.83
2018-06-12T23:48:44.110Z,51.23
2018-06-12T23:51:13.375Z,51.20
2018-06-12T23:53:42.325Z,51.10
2018-06-12T23:56:11.707Z,51.23
2018-06-12T23:58:40.892Z,52.45
